createdAt,value
2022-10-09T00:01:09.359Z,5.50
2022-10-09T00:03:38.244Z,5.13
2022-10-09T00:06:06.524Z,5.60
2022-10-09T00:08:34.694Z,5.23
2022-10-09T00:11:06.243Z,5.27
2022-10-09T00:13:33.432Z,5.47
2022-10-09T00:16:03.985Z,5.73
2022-10-09T00:18:30.896Z,5.57
2022-10-09T00:20:57.965Z,5.70
2022-10-09T00:23:24.634Z,5.67
2022-10-09T00:25:57.058Z,5.90
2022-10-09T00:28:26.081Z,6.10
2022-10-09T00:30:53.848Z,5.57
2022-10-09T00:33:21.547Z,5.73
2022-10-09T00:35:48.328Z,5.93
2022-10-09T00:38:15.275Z,5.73
2022-10-09T00:40:42.053Z,5.97
2022-10-09T00:43:37.220Z,5.80
2022-10-09T00:46:04.262Z,5.70
2022-10-09T00:48:31.659Z,6.30
2022-10-09T00:51:02.060Z,6.10
2022-10-09T00:53:30.692Z,6.03
2022-10-09T00:55:58.331Z,6.40
2022-10-09T00:58:25.958Z,6.23
2022-10-09T01:00:53.097Z,5.77
2022-10-09T01:03:20.052Z,5.50
2022-10-09T01:06:02.528Z,6.00
2022-10-09T01:08:42.317Z,5.63
2022-10-09T01:11:29.556Z,6.00
2022-10-09T01:14:07.368Z,6.30
2022-10-09T01:16:39.804Z,5.50
2022-10-09T01:20:00.838Z,6.07
2022-10-09T01:23:01.563Z,5.80
2022-10-09T01:25:36.470Z,5.23
2022-10-09T01:28:06.443Z,5.50
2022-10-09T01:30:34.991Z,5.40
2022-10-09T01:33:02.852Z,6.03
2022-10-09T01:35:30.829Z,5.77
2022-10-09T01:37:59.685Z,4.70
2022-10-09T01:40:28.677Z,4.97
2022-10-09T01:42:56.352Z,5.00
2022-10-09T01:45:23.094Z,5.03
2022-10-09T01:47:49.886Z,5.87
2022-10-09T01:50:27.410Z,5.37
2022-10-09T01:53:01.507Z,5.20
2022-10-09T01:55:54.689Z,5.20
2022-10-09T01:58:41.340Z,4.97
2022-10-09T02:01:16.521Z,5.13
2022-10-09T02:03:46.584Z,4.93
2022-10-09T02:06:16.026Z,4.67
2022-10-09T02:08:45.514Z,4.97
2022-10-09T02:11:15.163Z,5.10
2022-10-09T02:13:43.516Z,4.57
2022-10-09T02:16:22.487Z,4.70
2022-10-09T02:19:00.859Z,4.70
2022-10-09T02:21:31.222Z,5.23
2022-10-09T02:23:59.292Z,4.80
2022-10-09T02:26:26.907Z,4.60
2022-10-09T02:28:53.842Z,4.90
2022-10-09T02:31:29.953Z,5.60
2022-10-09T02:34:02.306Z,4.80
2022-10-09T02:36:29.861Z,4.63
2022-10-09T02:38:57.321Z,5.00
2022-10-09T02:41:25.040Z,4.63
2022-10-09T02:43:51.791Z,4.90
2022-10-09T02:46:18.998Z,4.57
2022-10-09T02:48:45.751Z,5.37
2022-10-09T02:51:12.486Z,4.87
2022-10-09T02:53:39.295Z,4.93
2022-10-09T02:56:06.338Z,4.90
2022-10-09T02:58:34.558Z,4.90
2022-10-09T03:01:01.608Z,5.33
2022-10-09T03:03:28.441Z,4.80
2022-10-09T03:06:09.424Z,4.67
2022-10-09T03:08:40.834Z,4.87
2022-10-09T03:11:07.824Z,4.77
2022-10-09T03:13:34.665Z,4.73
2022-10-09T03:16:10.507Z,5.00
2022-10-09T03:18:38.328Z,4.90
2022-10-09T03:21:06.779Z,4.87
2022-10-09T03:23:33.625Z,4.50
2022-10-09T03:26:02.708Z,4.43
2022-10-09T03:28:30.091Z,4.40
2022-10-09T03:30:56.942Z,3.97
2022-10-09T03:33:23.703Z,4.40
2022-10-09T03:35:50.518Z,4.30
2022-10-09T03:38:17.225Z,4.60
2022-10-09T03:40:44.126Z,3.97
2022-10-09T03:43:10.914Z,4.63
2022-10-09T03:45:41.487Z,3.80
2022-10-09T03:48:09.409Z,4.40
2022-10-09T03:50:37.642Z,4.30
2022-10-09T03:53:05.229Z,3.93
2022-10-09T03:55:31.960Z,3.97
2022-10-09T03:57:58.942Z,4.03
2022-10-09T04:00:25.941Z,3.53
2022-10-09T04:02:53.227Z,4.00
2022-10-09T04:05:20.046Z,4.00
2022-10-09T04:07:46.782Z,3.80
2022-10-09T04:10:13.431Z,4.07
2022-10-09T04:12:40.198Z,4.03
2022-10-09T04:15:07.556Z,3.63
2022-10-09T04:17:34.249Z,3.80
2022-10-09T04:20:00.932Z,3.83
2022-10-09T04:22:27.666Z,3.77
2022-10-09T04:24:54.409Z,4.23
2022-10-09T04:27:21.116Z,4.30
2022-10-09T04:29:47.788Z,3.67
2022-10-09T04:32:14.459Z,3.90
2022-10-09T04:34:41.120Z,3.67
2022-10-09T04:37:07.780Z,3.80
2022-10-09T04:39:34.572Z,3.60
2022-10-09T04:42:01.246Z,3.77
2022-10-09T04:44:27.933Z,3.43
2022-10-09T04:46:54.600Z,4.20
2022-10-09T04:49:21.351Z,4.13
2022-10-09T04:51:48.046Z,4.40
2022-10-09T04:54:14.687Z,4.07
2022-10-09T04:56:41.743Z,4.40
2022-10-09T04:59:08.608Z,4.30
2022-10-09T05:01:38.281Z,4.43
2022-10-09T05:04:05.396Z,4.20
2022-10-09T05:06:32.205Z,4.03
2022-10-09T05:08:58.893Z,4.30
2022-10-09T05:11:26.450Z,3.83
2022-10-09T05:13:55.648Z,4.13
2022-10-09T05:16:27.841Z,4.27
2022-10-09T05:18:56.705Z,4.03
2022-10-09T05:21:24.413Z,4.10
2022-10-09T05:23:52.748Z,4.27
2022-10-09T05:26:20.789Z,4.47
2022-10-09T05:28:47.877Z,4.00
2022-10-09T05:31:20.001Z,4.00
2022-10-09T05:33:47.425Z,3.60
2022-10-09T05:36:14.395Z,4.10
2022-10-09T05:38:41.188Z,4.07
2022-10-09T05:41:11.475Z,4.10
2022-10-09T05:43:40.904Z,4.60
2022-10-09T05:46:19.658Z,3.70
2022-10-09T05:48:55.117Z,4.20
2022-10-09T05:51:27.830Z,4.30
2022-10-09T05:53:54.699Z,4.20
2022-10-09T05:56:22.502Z,4.43
2022-10-09T05:58:54.663Z,4.80
2022-10-09T06:01:22.889Z,4.70
2022-10-09T06:03:51.770Z,4.37
2022-10-09T06:06:21.726Z,4.23
2022-10-09T06:08:49.108Z,4.10
2022-10-09T06:11:19.046Z,3.77
2022-10-09T06:13:46.962Z,4.10
2022-10-09T06:16:15.939Z,3.80
2022-10-09T06:18:49.080Z,3.53
2022-10-09T06:21:16.878Z,4.00
2022-10-09T06:23:43.639Z,4.20
2022-10-09T06:26:13.217Z,4.17
2022-10-09T06:28:40.969Z,4.33
2022-10-09T06:31:17.276Z,5.03
2022-10-09T06:33:45.601Z,4.63
2022-10-09T06:36:18.038Z,4.00
2022-10-09T06:38:45.230Z,4.20
2022-10-09T06:41:14.387Z,4.00
2022-10-09T06:43:41.750Z,3.43
2022-10-09T06:46:11.059Z,4.03
2022-10-09T06:48:39.003Z,3.73
2022-10-09T06:51:11.228Z,3.87
2022-10-09T06:53:40.208Z,3.80
2022-10-09T06:56:08.701Z,3.80
2022-10-09T06:58:35.545Z,3.90
2022-10-09T07:01:32.415Z,4.07
2022-10-09T07:04:10.315Z,4.00
2022-10-09T07:06:39.922Z,3.80
2022-10-09T07:09:08.761Z,3.80
2022-10-09T07:11:38.958Z,4.10
2022-10-09T07:14:08.568Z,3.80
2022-10-09T07:16:38.745Z,4.03
2022-10-09T07:19:07.717Z,4.47
2022-10-09T07:21:35.831Z,4.20
2022-10-09T07:24:04.187Z,4.07
2022-10-09T07:26:34.085Z,4.63
2022-10-09T07:29:01.420Z,3.93
2022-10-09T07:31:28.217Z,4.53
2022-10-09T07:33:56.571Z,4.13
2022-10-09T07:36:23.751Z,3.83
2022-10-09T07:38:53.297Z,4.10
2022-10-09T07:41:21.289Z,3.70
2022-10-09T07:43:48.053Z,4.10
2022-10-09T07:46:17.410Z,4.27
2022-10-09T07:48:44.885Z,4.07
2022-10-09T07:51:20.783Z,4.60
2022-10-09T07:53:47.711Z,4.20
2022-10-09T07:56:19.573Z,4.20
2022-10-09T07:59:07.380Z,3.60
2022-10-09T08:01:35.503Z,3.80
2022-10-09T08:04:03.195Z,4.00
2022-10-09T08:06:30.426Z,3.83
2022-10-09T08:08:59.370Z,3.53
2022-10-09T08:11:28.007Z,3.93
2022-10-09T08:13:55.332Z,3.83
2022-10-09T08:16:23.571Z,4.03
2022-10-09T08:18:55.001Z,3.93
2022-10-09T08:21:21.712Z,3.90
2022-10-09T08:23:54.171Z,3.93
2022-10-09T08:26:22.642Z,3.90
2022-10-09T08:29:03.720Z,4.00
2022-10-09T08:31:31.894Z,3.20
2022-10-09T08:34:01.571Z,3.53
2022-10-09T08:36:29.322Z,3.80
2022-10-09T08:38:56.019Z,3.83
2022-10-09T08:41:48.214Z,3.27
2022-10-09T08:44:33.028Z,3.60
2022-10-09T08:47:06.920Z,3.40
2022-10-09T08:49:39.298Z,2.90
2022-10-09T08:52:36.699Z,2.77
2022-10-09T08:55:16.577Z,2.83
2022-10-09T08:57:46.718Z,2.53
2022-10-09T09:00:18.599Z,2.80
2022-10-09T09:03:01.487Z,2.50
2022-10-09T09:05:40.430Z,2.00
2022-10-09T09:08:25.971Z,2.10
2022-10-09T09:11:22.030Z,2.40
2022-10-09T09:14:11.785Z,2.23
2022-10-09T09:16:58.388Z,1.90
2022-10-09T09:19:50.899Z,2.27
2022-10-09T09:22:17.914Z,2.10
2022-10-09T09:24:54.387Z,2.40
2022-10-09T09:27:49.368Z,2.07
2022-10-09T09:30:31.097Z,1.87
2022-10-09T09:33:12.824Z,2.20
2022-10-09T09:36:07.067Z,2.00
2022-10-09T09:38:33.790Z,1.93
2022-10-09T09:41:24.028Z,2.07
2022-10-09T09:43:50.776Z,2.03
2022-10-09T09:46:23.000Z,2.00
2022-10-09T09:48:49.977Z,2.20
2022-10-09T09:51:30.039Z,1.97
2022-10-09T09:54:15.322Z,1.60
2022-10-09T09:59:38.796Z,1.83
2022-10-09T10:02:17.524Z,1.83
2022-10-09T10:04:56.372Z,1.60
2022-10-09T10:07:29.781Z,1.40
2022-10-09T10:10:24.028Z,1.60
2022-10-09T10:12:52.207Z,1.33
2022-10-09T10:15:33.587Z,2.07
2022-10-09T10:18:12.531Z,1.30
2022-10-09T10:20:55.047Z,1.60
2022-10-09T10:23:24.438Z,1.60
2022-10-09T10:25:55.487Z,1.47
2022-10-09T10:28:27.929Z,1.27
2022-10-09T10:30:57.302Z,1.40
2022-10-09T10:33:32.575Z,1.67
2022-10-09T10:36:00.036Z,1.47
2022-10-09T10:38:39.309Z,1.53
2022-10-09T10:41:19.093Z,1.53
2022-10-09T10:43:54.308Z,1.27
2022-10-09T10:46:26.192Z,1.40
2022-10-09T10:48:53.479Z,1.30
2022-10-09T10:51:38.853Z,1.27
2022-10-09T10:54:05.493Z,1.13
2022-10-09T10:56:46.780Z,1.07
2022-10-09T10:59:39.786Z,1.40
2022-10-09T11:02:32.611Z,1.53
2022-10-09T11:05:25.310Z,1.63
2022-10-09T11:08:23.475Z,1.30
2022-10-09T11:11:27.640Z,1.40
2022-10-09T11:14:20.502Z,1.40
2022-10-09T11:16:57.232Z,1.27
2022-10-09T11:19:45.442Z,1.27
2022-10-09T11:22:12.352Z,1.17
2022-10-09T11:24:56.132Z,1.53
2022-10-09T11:27:42.355Z,1.40
2022-10-09T11:30:11.839Z,1.20
2022-10-09T11:33:02.859Z,1.37
2022-10-09T11:35:55.892Z,1.10
2022-10-09T11:38:26.750Z,1.63
2022-10-09T11:40:54.665Z,1.27
2022-10-09T11:43:27.241Z,1.43
2022-10-09T11:46:21.465Z,1.33
2022-10-09T11:49:19.349Z,1.10
2022-10-09T11:52:13.473Z,1.17
2022-10-09T11:54:40.942Z,1.30
2022-10-09T11:57:11.642Z,1.33
2022-10-09T11:59:45.026Z,1.37
2022-10-09T12:02:30.319Z,1.33
2022-10-09T12:04:57.161Z,1.20
2022-10-09T12:07:35.730Z,1.43
2022-10-09T12:10:10.134Z,1.00
2022-10-09T12:12:39.981Z,1.17
2022-10-09T12:15:27.105Z,1.40
2022-10-09T12:17:53.840Z,1.07
2022-10-09T12:20:24.656Z,1.03
2022-10-09T12:23:21.796Z,1.20
2022-10-09T12:25:47.618Z,1.07
2022-10-09T12:28:35.715Z,1.53
2022-10-09T12:31:07.109Z,1.27
2022-10-09T12:33:45.817Z,1.53
2022-10-09T12:36:21.763Z,1.17
2022-10-09T12:38:48.443Z,1.20
2022-10-09T12:41:25.084Z,1.10
2022-10-09T12:43:54.092Z,1.13
2022-10-09T12:46:33.661Z,1.20
2022-10-09T12:49:03.248Z,1.10
2022-10-09T12:51:31.840Z,1.20
2022-10-09T12:53:58.905Z,1.20
2022-10-09T12:56:31.991Z,1.20
2022-10-09T12:59:00.628Z,1.23
2022-10-09T13:01:27.991Z,1.33
2022-10-09T13:04:05.258Z,1.37
2022-10-09T13:06:42.959Z,1.60
2022-10-09T13:09:23.543Z,1.73
2022-10-09T13:12:07.854Z,1.30
2022-10-09T13:14:55.353Z,1.20
2022-10-09T13:17:32.874Z,1.20
2022-10-09T13:20:21.011Z,1.10
2022-10-09T13:23:02.189Z,1.13
2022-10-09T13:25:38.730Z,1.10
2022-10-09T13:28:05.555Z,1.47
2022-10-09T13:30:32.803Z,1.03
2022-10-09T13:32:59.692Z,1.10
2022-10-09T13:35:26.626Z,1.00
2022-10-09T13:37:53.593Z,1.20
2022-10-09T13:40:22.144Z,1.40
2022-10-09T13:42:57.203Z,1.47
2022-10-09T13:45:24.158Z,1.10
2022-10-09T13:47:51.252Z,1.07
2022-10-09T13:50:19.687Z,1.00
2022-10-09T13:52:47.081Z,1.10
2022-10-09T13:55:15.174Z,1.03
2022-10-09T13:57:41.985Z,1.10
2022-10-09T14:00:09.365Z,0.93
2022-10-09T14:02:36.443Z,1.00
2022-10-09T14:05:03.535Z,1.00
2022-10-09T14:07:30.320Z,1.20
2022-10-09T14:09:57.448Z,1.20
2022-10-09T14:12:24.169Z,1.00
2022-10-09T14:14:52.374Z,1.13
2022-10-09T14:17:19.245Z,1.20
2022-10-09T14:19:45.954Z,1.07
2022-10-09T14:22:13.451Z,0.90
2022-10-09T14:24:40.476Z,1.20
2022-10-09T14:27:07.315Z,1.20
2022-10-09T14:29:34.002Z,1.20
2022-10-09T14:32:00.731Z,0.90
2022-10-09T14:34:27.472Z,1.00
2022-10-09T14:36:54.273Z,1.23
2022-10-09T14:39:20.961Z,0.90
2022-10-09T14:41:47.668Z,0.90
2022-10-09T14:44:14.386Z,1.17
2022-10-09T14:46:41.142Z,1.10
2022-10-09T14:49:08.409Z,1.00
2022-10-09T14:51:40.048Z,0.90
2022-10-09T14:54:08.503Z,1.20
2022-10-09T14:56:36.183Z,1.30
2022-10-09T14:59:03.485Z,1.00
2022-10-09T15:01:30.178Z,1.33
2022-10-09T15:03:59.135Z,1.20
2022-10-09T15:06:27.544Z,1.37
2022-10-09T15:09:00.337Z,1.20
2022-10-09T15:11:30.303Z,1.40
2022-10-09T15:13:57.123Z,1.17
2022-10-09T15:16:24.941Z,1.10
2022-10-09T15:18:53.456Z,1.57
2022-10-09T15:21:22.741Z,1.20
2022-10-09T15:23:49.991Z,1.07
2022-10-09T15:26:16.965Z,1.50
2022-10-09T15:28:44.741Z,1.20
2022-10-09T15:31:26.803Z,1.57
2022-10-09T15:33:55.014Z,1.37
2022-10-09T15:36:23.197Z,1.07
2022-10-09T15:38:50.586Z,1.20
2022-10-09T15:41:24.807Z,1.03
2022-10-09T15:43:54.136Z,1.03
2022-10-09T15:46:20.922Z,1.20
2022-10-09T15:48:47.959Z,1.20
2022-10-09T15:51:15.134Z,1.20
2022-10-09T15:53:43.539Z,1.23
2022-10-09T15:56:13.542Z,1.17
2022-10-09T15:58:40.499Z,1.60
2022-10-09T16:01:10.625Z,1.30
2022-10-09T16:03:38.248Z,1.43
2022-10-09T16:06:07.508Z,1.73
2022-10-09T16:08:34.543Z,1.20
2022-10-09T16:11:05.852Z,1.30
2022-10-09T16:13:34.868Z,1.53
2022-10-09T16:16:05.414Z,1.23
2022-10-09T16:18:32.772Z,1.07
2022-10-09T16:21:12.146Z,1.37
2022-10-09T16:23:38.851Z,1.77
2022-10-09T16:26:05.662Z,1.60
2022-10-09T16:28:33.166Z,1.60
2022-10-09T16:30:59.997Z,1.70
2022-10-09T16:33:26.712Z,1.50
2022-10-09T16:35:53.473Z,1.77
2022-10-09T16:38:20.343Z,1.60
2022-10-09T16:41:04.565Z,1.70
2022-10-09T16:43:33.846Z,1.80
2022-10-09T16:46:20.433Z,2.00
2022-10-09T16:48:49.639Z,1.87
2022-10-09T16:51:22.560Z,1.77
2022-10-09T16:53:51.027Z,1.83
2022-10-09T16:56:23.081Z,1.90
2022-10-09T16:58:54.056Z,1.90
2022-10-09T17:01:21.261Z,2.20
2022-10-09T17:03:48.969Z,2.00
2022-10-09T17:06:19.690Z,2.17
2022-10-09T17:08:47.886Z,2.10
2022-10-09T17:11:15.799Z,2.07
2022-10-09T17:13:43.296Z,1.90
2022-10-09T17:16:18.251Z,1.93
2022-10-09T17:18:45.992Z,1.73
2022-10-09T17:21:13.624Z,1.90
2022-10-09T17:23:40.563Z,1.83
2022-10-09T17:26:12.247Z,1.60
2022-10-09T17:28:40.295Z,1.93
2022-10-09T17:31:09.875Z,2.07
2022-10-09T17:33:41.355Z,1.90
2022-10-09T17:36:09.578Z,2.10
2022-10-09T17:38:36.727Z,2.20
2022-10-09T17:41:05.071Z,2.13
2022-10-09T17:43:31.728Z,2.47
2022-10-09T17:45:58.526Z,2.50
2022-10-09T17:48:25.221Z,3.23
2022-10-09T17:50:57.557Z,2.67
2022-10-09T17:53:24.893Z,2.70
2022-10-09T17:55:53.132Z,2.73
2022-10-09T17:58:21.038Z,3.13
2022-10-09T18:00:48.555Z,3.17
2022-10-09T18:03:16.685Z,3.50
2022-10-09T18:05:45.533Z,3.60
2022-10-09T18:08:14.785Z,3.43
2022-10-09T18:10:42.349Z,4.00
2022-10-09T18:13:10.041Z,4.30
2022-10-09T18:15:46.774Z,4.97
2022-10-09T18:18:13.462Z,4.83
2022-10-09T18:20:40.724Z,5.80
2022-10-09T18:23:08.409Z,5.37
2022-10-09T18:25:40.031Z,4.47
2022-10-09T18:28:07.079Z,4.50
2022-10-09T18:30:34.058Z,3.37
2022-10-09T18:33:00.750Z,3.27
2022-10-09T18:35:30.260Z,3.10
2022-10-09T18:37:56.955Z,3.23
2022-10-09T18:40:23.646Z,2.80
2022-10-09T18:42:50.666Z,2.80
2022-10-09T18:45:17.623Z,3.03
2022-10-09T18:47:44.727Z,2.97
2022-10-09T18:50:13.253Z,3.07
2022-10-09T18:52:41.440Z,2.90
2022-10-09T18:55:11.551Z,2.60
2022-10-09T18:57:40.619Z,2.87
2022-10-09T19:00:08.180Z,2.53
2022-10-09T19:02:34.944Z,3.10
2022-10-09T19:05:01.651Z,2.60
2022-10-09T19:07:28.363Z,2.90
2022-10-09T19:09:57.609Z,2.63
2022-10-09T19:12:25.277Z,2.60
2022-10-09T19:14:52.286Z,2.20
2022-10-09T19:17:20.329Z,2.23
2022-10-09T19:19:47.078Z,2.40
2022-10-09T19:22:16.494Z,2.60
2022-10-09T19:24:44.337Z,2.23
2022-10-09T19:27:11.323Z,2.20
2022-10-09T19:29:38.038Z,2.43
2022-10-09T19:32:04.777Z,2.40
2022-10-09T19:34:31.683Z,2.10
2022-10-09T19:36:58.503Z,2.30
2022-10-09T19:39:25.259Z,2.23
2022-10-09T19:41:52.067Z,2.07
2022-10-09T19:44:19.129Z,2.60
2022-10-09T19:46:46.002Z,2.20
2022-10-09T19:49:12.846Z,2.73
2022-10-09T19:51:40.365Z,2.87
2022-10-09T19:54:08.966Z,2.50
2022-10-09T19:56:36.113Z,3.20
2022-10-09T19:59:05.316Z,3.17
2022-10-09T20:01:35.384Z,3.30
2022-10-09T20:04:05.305Z,3.30
2022-10-09T20:06:32.080Z,3.40
2022-10-09T20:08:58.795Z,3.57
2022-10-09T20:11:26.972Z,4.10
2022-10-09T20:13:56.123Z,3.60
2022-10-09T20:16:24.882Z,3.93
2022-10-09T20:18:51.681Z,3.37
2022-10-09T20:21:18.445Z,3.97
2022-10-09T20:23:45.206Z,3.40
2022-10-09T20:26:14.802Z,3.50
2022-10-09T20:28:42.138Z,3.10
2022-10-09T20:31:14.546Z,3.40
2022-10-09T20:33:42.474Z,3.50
2022-10-09T20:36:19.000Z,3.20
2022-10-09T20:38:45.705Z,3.40
2022-10-09T20:41:12.393Z,3.10
2022-10-09T20:43:40.170Z,2.93
2022-10-09T20:46:13.223Z,3.20
2022-10-09T20:48:41.558Z,3.40
2022-10-09T20:51:08.901Z,3.47
2022-10-09T20:53:36.072Z,3.43
2022-10-09T20:56:06.032Z,3.10
2022-10-09T20:58:33.611Z,3.47
2022-10-09T21:01:00.461Z,3.33
2022-10-09T21:03:27.138Z,2.90
2022-10-09T21:05:53.841Z,3.57
2022-10-09T21:08:20.703Z,3.00
2022-10-09T21:10:49.635Z,3.20
2022-10-09T21:13:16.928Z,3.20
2022-10-09T21:15:49.086Z,3.27
2022-10-09T21:18:17.499Z,2.97
2022-10-09T21:20:46.408Z,2.67
2022-10-09T21:23:15.927Z,3.00
2022-10-09T21:25:53.289Z,2.70
2022-10-09T21:28:21.518Z,2.70
2022-10-09T21:30:49.151Z,2.63
2022-10-09T21:33:16.716Z,2.80
2022-10-09T21:35:49.318Z,2.47
2022-10-09T21:38:18.809Z,2.77
2022-10-09T21:40:46.548Z,2.57
2022-10-09T21:43:14.020Z,2.60
2022-10-09T21:45:41.007Z,2.60
2022-10-09T21:48:08.228Z,2.90
2022-10-09T21:50:36.609Z,2.97
2022-10-09T21:53:04.175Z,2.30
2022-10-09T21:55:33.882Z,2.53
2022-10-09T21:58:00.591Z,2.70
2022-10-09T22:00:27.261Z,3.03
2022-10-09T22:02:54.100Z,2.57
2022-10-09T22:05:20.774Z,2.70
2022-10-09T22:07:47.489Z,2.73
2022-10-09T22:10:14.161Z,2.87
2022-10-09T22:12:40.799Z,2.57
2022-10-09T22:15:07.704Z,3.37
2022-10-09T22:17:34.475Z,2.93
2022-10-09T22:20:01.143Z,3.60
2022-10-09T22:22:27.930Z,3.20
2022-10-09T22:24:54.865Z,3.33
2022-10-09T22:27:21.497Z,3.37
2022-10-09T22:29:48.159Z,3.10
2022-10-09T22:32:14.795Z,3.23
2022-10-09T22:34:41.502Z,3.20
2022-10-09T22:37:08.194Z,3.17
2022-10-09T22:39:35.360Z,3.03
2022-10-09T22:42:02.041Z,3.80
2022-10-09T22:44:28.801Z,3.37
2022-10-09T22:46:55.485Z,2.93
2022-10-09T22:49:22.100Z,2.83
2022-10-09T22:51:48.772Z,2.80
2022-10-09T22:54:15.504Z,2.57
2022-10-09T22:56:44.543Z,2.47
2022-10-09T22:59:14.792Z,2.67
2022-10-09T23:01:53.461Z,2.53
2022-10-09T23:04:21.567Z,2.53
2022-10-09T23:06:54.311Z,2.20
2022-10-09T23:09:22.788Z,2.40
2022-10-09T23:11:49.590Z,2.50
2022-10-09T23:14:16.496Z,2.30
2022-10-09T23:16:43.187Z,2.30
2022-10-09T23:19:10.474Z,2.43
2022-10-09T23:21:39.352Z,2.30
2022-10-09T23:24:07.447Z,2.37
2022-10-09T23:26:35.539Z,2.53
2022-10-09T23:29:09.079Z,2.27
2022-10-09T23:31:36.550Z,2.27
2022-10-09T23:34:04.585Z,2.70
2022-10-09T23:36:31.333Z,2.47
2022-10-09T23:39:00.542Z,2.90
2022-10-09T23:41:28.480Z,2.50
2022-10-09T23:43:55.759Z,2.60
2022-10-09T23:46:25.148Z,2.40
2022-10-09T23:48:52.823Z,2.67
2022-10-09T23:51:21.204Z,2.43
2022-10-09T23:53:48.247Z,2.30
2022-10-09T23:56:18.168Z,2.30
2022-10-09T23:58:45.296Z,2.60
